Time;durP1;ratioP1;P1;durP2;ratioP2;P2;SDS_P1;SDS_P2;PMS_P1;PMS_P2;Temp;Humidity;BMP_temperature;BMP_pressure;BME280_temperature;BME280_humidity;BME280_pressure;Samples;Min_cycle;Max_cycle;Signal;HPM_P1;HPM_P2
2022/02/08 00:01:38;;;;;;;0.90;0.83;;;;;;;;;;4990685;28;20331;-70
2022/02/08 00:04:06;;;;;;;0.60;0.60;;;;;;;;;;4998416;28;20252;-69
2022/02/08 00:06:42;;;;;;;1.47;0.40;;;;;;;;;;5000762;28;20588;-69
2022/02/08 00:09:10;;;;;;;4.37;0.87;;;;;;;;;;5000044;28;21424;-69
2022/02/08 00:11:37;;;;;;;1.03;0.93;;;;;;;;;;4995928;28;20330;-70
2022/02/08 00:14:06;;;;;;;1.40;1.30;;;;;;;;;;4999751;28;20224;-72
2022/02/08 00:16:34;;;;;;;1.50;1.00;;;;;;;;;;4993865;28;20579;-73
2022/02/08 00:19:01;;;;;;;1.03;0.73;;;;;;;;;;4998882;28;20205;-69
2022/02/08 00:21:28;;;;;;;0.97;0.67;;;;;;;;;;4994738;28;20208;-71
2022/02/08 00:23:56;;;;;;;0.77;0.77;;;;;;;;;;4999665;28;20985;-73
2022/02/08 00:26:23;;;;;;;1.40;0.53;;;;;;;;;;4997930;28;20214;-71
2022/02/08 00:28:50;;;;;;;1.90;1.50;;;;;;;;;;4996601;28;20205;-70
2022/02/08 00:31:20;;;;;;;1.57;0.57;;;;;;;;;;4995520;28;20201;-70
2022/02/08 00:33:47;;;;;;;0.70;0.67;;;;;;;;;;4982986;28;20225;-73
2022/02/08 00:36:14;;;;;;;4.67;2.93;;;;;;;;;;4978555;28;20197;-74
2022/02/08 00:38:42;;;;;;;1.23;1.13;;;;;;;;;;4994903;28;22938;-71
2022/02/08 00:41:09;;;;;;;3.13;2.47;;;;;;;;;;4996837;28;20212;-70
2022/02/08 00:43:45;;;;;;;1.70;1.60;;;;;;;;;;5003272;28;20216;-70
2022/02/08 00:46:17;;;;;;;1.77;1.47;;;;;;;;;;4993121;28;20263;-69
2022/02/08 00:48:55;;;;;;;2.17;1.93;;;;;;;;;;5003883;28;20201;-69
2022/02/08 00:51:25;;;;;;;0.70;0.70;;;;;;;;;;4993419;28;20197;-70
2022/02/08 00:53:52;;;;;;;2.67;1.63;;;;;;;;;;5002634;28;20217;-69
2022/02/08 00:56:19;;;;;;;3.60;2.90;;;;;;;;;;5006366;28;20185;-69
2022/02/08 00:58:47;;;;;;;5.57;2.97;;;;;;;;;;5010395;28;20228;-70
2022/02/08 01:01:14;;;;;;;0.83;0.83;;;;;;;;;;5002057;28;20681;-69
2022/02/08 01:03:43;;;;;;;4.47;1.17;;;;;;;;;;5010101;28;20205;-69
2022/02/08 01:06:11;;;;;;;3.03;1.90;;;;;;;;;;5006941;28;20198;-70
2022/02/08 01:08:40;;;;;;;3.67;2.60;;;;;;;;;;5009393;28;20220;-69
2022/02/08 01:11:09;;;;;;;1.70;1.30;;;;;;;;;;5010500;28;20208;-69
2022/02/08 01:13:39;;;;;;;1.57;1.47;;;;;;;;;;5005880;28;20225;-69
2022/02/08 01:16:07;;;;;;;4.17;2.67;;;;;;;;;;4996212;28;20331;-69
2022/02/08 01:18:39;;;;;;;2.57;1.83;;;;;;;;;;4987328;28;20721;-70
2022/02/08 01:21:06;;;;;;;7.03;1.60;;;;;;;;;;4979740;28;20212;-70
2022/02/08 01:23:35;;;;;;;1.37;1.27;;;;;;;;;;4986273;28;20228;-69
2022/02/08 01:26:10;;;;;;;3.83;3.43;;;;;;;;;;4979087;28;20201;-70
2022/02/08 01:28:45;;;;;;;2.57;2.37;;;;;;;;;;4980374;28;20291;-70
2022/02/08 01:31:15;;;;;;;2.63;2.00;;;;;;;;;;4988235;28;20215;-69
2022/02/08 01:39:22;;;;;;;1.57;1.43;;;;;;;;;;4994009;28;21032;-70
2022/02/08 01:42:19;;;;;;;3.03;1.20;;;;;;;;;;4983093;28;20224;-70
2022/02/08 01:44:59;;;;;;;1.90;1.20;;;;;;;;;;4979868;28;20197;-72
2022/02/08 01:47:30;;;;;;;3.03;2.73;;;;;;;;;;4980055;28;20596;-70
2022/02/08 01:50:06;;;;;;;2.87;1.87;;;;;;;;;;4980042;28;20667;-72
2022/02/08 01:52:34;;;;;;;2.67;2.17;;;;;;;;;;4986222;28;20192;-72
2022/02/08 01:55:03;;;;;;;1.67;1.33;;;;;;;;;;4983238;28;20847;-72
2022/02/08 01:57:30;;;;;;;2.23;2.13;;;;;;;;;;4981792;28;20580;-70
2022/02/08 01:59:57;;;;;;;3.90;1.50;;;;;;;;;;4979416;28;20212;-72
2022/02/08 02:02:25;;;;;;;4.17;2.07;;;;;;;;;;4978972;28;20205;-71
2022/02/08 02:04:52;;;;;;;1.00;1.00;;;;;;;;;;4980465;28;20201;-70
2022/02/08 02:07:19;;;;;;;3.03;2.27;;;;;;;;;;4978723;28;20205;-71
2022/02/08 02:09:47;;;;;;;2.13;1.67;;;;;;;;;;4981231;28;20208;-71
2022/02/08 02:12:16;;;;;;;3.20;2.43;;;;;;;;;;4978838;28;20201;-71
2022/02/08 02:14:43;;;;;;;1.47;1.37;;;;;;;;;;4982628;28;20233;-72
2022/02/08 02:17:11;;;;;;;3.77;1.70;;;;;;;;;;4982903;28;20886;-71
2022/02/08 02:19:38;;;;;;;1.03;0.93;;;;;;;;;;4982692;28;20216;-69
2022/02/08 02:22:07;;;;;;;1.53;1.30;;;;;;;;;;4983573;28;20197;-71
2022/02/08 02:24:36;;;;;;;1.83;1.70;;;;;;;;;;4982192;28;20635;-70
2022/02/08 02:27:04;;;;;;;2.97;2.37;;;;;;;;;;4980076;28;20248;-71
2022/02/08 02:29:32;;;;;;;0.40;0.40;;;;;;;;;;4994166;28;20258;-70
2022/02/08 02:32:00;;;;;;;0.60;0.60;;;;;;;;;;4991838;28;20733;-70
2022/02/08 02:34:28;;;;;;;1.37;0.80;;;;;;;;;;4996685;28;20228;-71
2022/02/08 02:36:55;;;;;;;2.03;1.70;;;;;;;;;;4979747;28;20271;-71
2022/02/08 02:39:24;;;;;;;0.50;0.40;;;;;;;;;;4981110;28;20236;-72
2022/02/08 02:41:53;;;;;;;1.60;1.00;;;;;;;;;;4982696;28;20214;-71
2022/02/08 02:44:23;;;;;;;2.67;0.77;;;;;;;;;;4986567;28;20212;-72
2022/02/08 02:46:51;;;;;;;4.17;3.00;;;;;;;;;;4983508;28;20658;-70
2022/02/08 02:49:19;;;;;;;2.57;0.50;;;;;;;;;;4986553;28;20204;-71
2022/02/08 02:51:46;;;;;;;1.50;0.93;;;;;;;;;;4989752;28;20193;-71
2022/02/08 02:54:15;;;;;;;1.33;1.23;;;;;;;;;;4986579;28;20243;-72
2022/02/08 02:56:42;;;;;;;0.80;0.40;;;;;;;;;;4984181;28;22395;-68
2022/02/08 02:59:11;;;;;;;0.30;0.27;;;;;;;;;;4986252;28;20503;-71
2022/02/08 03:01:47;;;;;;;1.53;1.37;;;;;;;;;;4984710;28;20606;-69
2022/02/08 03:04:32;;;;;;;0.73;0.50;;;;;;;;;;4984247;28;20978;-69
2022/02/08 03:21:11;;;;;;;2.50;2.17;;;;;;;;;;5064197;27;20717;-72
2022/02/08 03:23:39;;;;;;;1.40;0.60;;;;;;;;;;5048907;28;20198;-68
2022/02/08 03:26:07;;;;;;;0.73;0.30;;;;;;;;;;5047352;28;20663;-74
2022/02/08 03:28:34;;;;;;;1.00;0.87;;;;;;;;;;5047609;28;20212;-73
2022/02/08 03:31:02;;;;;;;2.40;1.03;;;;;;;;;;5045663;28;20222;-72
2022/02/08 03:33:29;;;;;;;1.53;1.23;;;;;;;;;;5046243;28;21723;-70
2022/02/08 03:35:57;;;;;;;0.87;0.87;;;;;;;;;;5046896;28;20665;-71
2022/02/08 03:38:33;;;;;;;8.00;2.57;;;;;;;;;;5045990;28;20293;-71
2022/02/08 03:41:03;;;;;;;2.10;1.60;;;;;;;;;;5046403;28;20579;-71
2022/02/08 03:43:32;;;;;;;3.03;2.00;;;;;;;;;;5048023;28;20210;-70
2022/02/08 03:46:04;;;;;;;1.07;1.07;;;;;;;;;;5045998;28;20207;-71
2022/02/08 03:48:34;;;;;;;0.80;0.80;;;;;;;;;;5047784;28;20202;-72
2022/02/08 03:51:12;;;;;;;1.27;1.17;;;;;;;;;;5044815;28;20226;-72
2022/02/08 03:53:43;;;;;;;2.60;1.13;;;;;;;;;;5049471;28;20876;-70
2022/02/08 03:56:10;;;;;;;5.00;1.47;;;;;;;;;;5051800;28;20214;-68
2022/02/08 03:58:38;;;;;;;3.53;1.43;;;;;;;;;;5055982;28;20203;-72
2022/02/08 04:01:33;;;;;;;0.50;0.50;;;;;;;;;;5056364;28;20215;-69
2022/02/08 04:06:48;;;;;;;0.60;0.60;;;;;;;;;;5046286;28;20210;-70
2022/02/08 04:09:18;;;;;;;1.33;1.03;;;;;;;;;;5056469;28;20225;-69
2022/02/08 04:11:55;;;;;;;8.23;1.40;;;;;;;;;;5056681;28;20207;-69
2022/02/08 04:14:30;;;;;;;3.50;0.50;;;;;;;;;;5056133;28;20205;-70
2022/02/08 04:17:05;;;;;;;0.73;0.63;;;;;;;;;;5056181;28;20230;-70
2022/02/08 04:19:37;;;;;;;2.20;1.07;;;;;;;;;;5055250;28;20230;-69
2022/02/08 04:33:13;;;;;;;0.93;0.40;;;;;;;;;;5042336;28;20206;-69
2022/02/08 04:36:00;;;;;;;0.10;0.10;;;;;;;;;;5041043;28;20211;-69
2022/02/08 04:38:39;;;;;;;2.90;0.50;;;;;;;;;;5042772;28;20203;-70
2022/02/08 04:41:12;;;;;;;3.80;0.80;;;;;;;;;;5045804;28;20199;-70
2022/02/08 04:43:52;;;;;;;3.30;0.60;;;;;;;;;;5050312;28;20192;-68
2022/02/08 04:46:31;;;;;;;0.93;0.90;;;;;;;;;;5049998;28;20204;-69
2022/02/08 04:48:58;;;;;;;3.60;1.60;;;;;;;;;;5050530;28;20224;-70
2022/02/08 04:51:31;;;;;;;4.13;1.50;;;;;;;;;;5050660;28;20318;-69
2022/02/08 04:54:07;;;;;;;1.23;1.03;;;;;;;;;;5050769;28;20731;-69
2022/02/08 04:56:55;;;;;;;4.90;0.93;;;;;;;;;;5049314;28;20203;-69
2022/02/08 05:02:24;;;;;;;5.93;1.70;;;;;;;;;;5049870;28;20660;-71
2022/02/08 05:35:38;;;;;;;1.90;0.47;;;;;;;;;;5041610;28;20222;-68
2022/02/08 05:41:34;;;;;;;1.30;0.93;;;;;;;;;;5020090;28;20680;-68
2022/02/08 05:44:06;;;;;;;4.20;0.97;;;;;;;;;;5038483;28;20199;-70
2022/02/08 05:49:40;;;;;;;2.17;0.90;;;;;;;;;;5039349;28;20232;-67
2022/02/08 05:54:52;;;;;;;4.53;1.53;;;;;;;;;;5040666;28;20195;-70
2022/02/08 05:57:19;;;;;;;0.57;0.43;;;;;;;;;;5040727;28;20577;-68
2022/02/08 05:59:46;;;;;;;0.20;0.20;;;;;;;;;;5040003;28;20196;-68
2022/02/08 06:02:15;;;;;;;0.10;0.10;;;;;;;;;;5041257;28;20574;-67
2022/02/08 06:04:44;;;;;;;1.97;1.87;;;;;;;;;;5041224;28;20198;-67
2022/02/08 06:07:15;;;;;;;1.23;0.93;;;;;;;;;;5042984;28;20215;-71
2022/02/08 06:09:42;;;;;;;4.23;1.70;;;;;;;;;;5040334;28;20753;-68
2022/02/08 06:12:10;;;;;;;0.10;0.10;;;;;;;;;;5040471;28;20561;-70
2022/02/08 06:14:41;;;;;;;2.50;1.03;;;;;;;;;;5038337;28;20199;-69
2022/02/08 06:17:08;;;;;;;0.73;0.73;;;;;;;;;;5039238;28;20846;-69
2022/02/08 06:19:37;;;;;;;0.27;0.20;;;;;;;;;;5037857;28;20227;-69
2022/02/08 06:22:05;;;;;;;2.50;0.90;;;;;;;;;;5037271;28;21885;-69
2022/02/08 06:24:32;;;;;;;1.97;0.57;;;;;;;;;;5037923;28;20206;-70
2022/02/08 06:26:59;;;;;;;3.23;0.73;;;;;;;;;;5036242;28;20212;-71
2022/02/08 06:29:27;;;;;;;0.70;0.60;;;;;;;;;;5038747;28;20195;-68
2022/02/08 06:31:54;;;;;;;4.50;1.40;;;;;;;;;;5036991;28;20197;-69
2022/02/08 06:34:24;;;;;;;2.30;1.67;;;;;;;;;;5039347;28;20199;-68
2022/02/08 06:36:59;;;;;;;0.67;0.67;;;;;;;;;;5039453;28;20196;-70
2022/02/08 06:39:32;;;;;;;0.87;0.17;;;;;;;;;;5039868;28;20207;-70
2022/02/08 06:41:59;;;;;;;0.37;0.37;;;;;;;;;;5045742;28;20204;-67
2022/02/08 06:44:27;;;;;;;1.43;1.03;;;;;;;;;;5048936;28;20270;-68
2022/02/08 06:46:54;;;;;;;7.30;1.03;;;;;;;;;;5047600;28;20667;-67
2022/02/08 06:49:21;;;;;;;0.67;0.30;;;;;;;;;;5048438;28;20188;-68
2022/02/08 06:51:49;;;;;;;0.40;0.33;;;;;;;;;;5048223;28;20219;-67
2022/02/08 06:54:17;;;;;;;2.17;0.57;;;;;;;;;;5048347;28;20203;-68
2022/02/08 06:56:45;;;;;;;1.47;0.20;;;;;;;;;;5045476;28;20712;-68
2022/02/08 06:59:16;;;;;;;1.40;0.90;;;;;;;;;;5046975;28;20196;-68
2022/02/08 07:01:44;;;;;;;2.73;0.57;;;;;;;;;;5049172;28;20216;-72
2022/02/08 07:04:14;;;;;;;0.83;0.67;;;;;;;;;;5048969;28;20207;-68
2022/02/08 07:06:42;;;;;;;0.97;0.83;;;;;;;;;;5048434;28;20289;-68
2022/02/08 07:09:09;;;;;;;1.50;1.03;;;;;;;;;;5047273;28;20656;-68
2022/02/08 07:11:38;;;;;;;0.20;0.10;;;;;;;;;;5048391;28;20237;-68
2022/02/08 07:14:06;;;;;;;1.97;0.50;;;;;;;;;;5039913;28;20222;-68
2022/02/08 07:16:34;;;;;;;0.60;0.60;;;;;;;;;;5039686;28;20225;-69
2022/02/08 07:19:01;;;;;;;2.10;0.60;;;;;;;;;;5038681;28;20219;-68
2022/02/08 07:21:28;;;;;;;0.17;0.17;;;;;;;;;;5038641;28;20196;-68
2022/02/08 07:23:56;;;;;;;2.70;1.30;;;;;;;;;;5039778;28;20199;-68
2022/02/08 07:26:23;;;;;;;1.37;0.20;;;;;;;;;;5039396;28;20688;-69
2022/02/08 07:28:52;;;;;;;5.50;1.03;;;;;;;;;;5038794;28;20326;-68
2022/02/08 07:31:22;;;;;;;4.40;0.87;;;;;;;;;;5038903;28;20227;-70
2022/02/08 07:33:56;;;;;;;0.87;0.60;;;;;;;;;;5039734;28;20582;-68
2022/02/08 07:36:33;;;;;;;0.07;0.07;;;;;;;;;;5042274;28;20732;-69
2022/02/08 07:39:01;;;;;;;0.73;0.57;;;;;;;;;;5047092;28;20206;-67
2022/02/08 07:41:38;;;;;;;1.60;0.40;;;;;;;;;;5047406;28;20282;-69
2022/02/08 07:44:09;;;;;;;0.77;0.50;;;;;;;;;;5047891;28;20275;-69
2022/02/08 07:46:36;;;;;;;0.40;0.20;;;;;;;;;;5047558;28;20204;-69
2022/02/08 07:49:04;;;;;;;2.77;0.43;;;;;;;;;;5047892;28;20207;-68
2022/02/08 07:51:33;;;;;;;0.47;0.40;;;;;;;;;;5043718;28;20723;-68
2022/02/08 07:54:01;;;;;;;0.60;0.40;;;;;;;;;;5038933;28;20284;-70
2022/02/08 07:56:28;;;;;;;0.53;0.37;;;;;;;;;;5038086;28;20279;-67
2022/02/08 07:58:55;;;;;;;0.20;0.20;;;;;;;;;;5039058;28;20211;-68
2022/02/08 08:01:24;;;;;;;0.00;0.00;;;;;;;;;;5040178;28;20758;-71
2022/02/08 08:03:52;;;;;;;5.40;0.87;;;;;;;;;;5037854;28;20211;-71
2022/02/08 08:06:19;;;;;;;0.97;0.80;;;;;;;;;;5035998;28;20601;-69
2022/02/08 08:08:47;;;;;;;4.53;0.10;;;;;;;;;;5048159;28;20199;-69
2022/02/08 08:11:18;;;;;;;0.73;0.53;;;;;;;;;;5047267;28;20232;-70
2022/02/08 08:13:50;;;;;;;2.63;0.67;;;;;;;;;;5048963;28;20227;-69
2022/02/08 08:16:30;;;;;;;0.33;0.33;;;;;;;;;;5050438;28;20206;-69
2022/02/08 08:19:05;;;;;;;5.23;0.63;;;;;;;;;;5048900;28;20668;-69
2022/02/08 08:21:34;;;;;;;0.50;0.40;;;;;;;;;;5048842;28;20234;-69
2022/02/08 08:24:02;;;;;;;0.23;0.23;;;;;;;;;;5049130;28;20199;-69
2022/02/08 08:26:29;;;;;;;0.40;0.40;;;;;;;;;;5050239;28;20296;-71
2022/02/08 08:28:57;;;;;;;5.07;1.13;;;;;;;;;;5043002;28;20210;-68
2022/02/08 08:31:24;;;;;;;0.30;0.30;;;;;;;;;;5040574;28;20708;-73
2022/02/08 08:33:52;;;;;;;3.07;0.77;;;;;;;;;;5041379;28;20628;-71
2022/02/08 08:36:22;;;;;;;0.43;0.27;;;;;;;;;;5042075;28;20192;-71
2022/02/08 08:38:51;;;;;;;2.57;0.60;;;;;;;;;;5040423;28;20246;-74
2022/02/08 08:41:24;;;;;;;0.50;0.47;;;;;;;;;;5040356;28;20199;-77
2022/02/08 08:44:32;;;;;;;5.60;0.77;;;;;;;;;;5036846;28;20195;-71
2022/02/08 08:52:33;;;;;;;1.07;0.63;;;;;;;;;;5040000;28;20309;-73
2022/02/08 08:55:00;;;;;;;8.33;0.80;;;;;;;;;;5042019;28;20209;-73
2022/02/08 08:57:28;;;;;;;0.97;0.27;;;;;;;;;;5038326;28;20204;-70
2022/02/08 08:59:56;;;;;;;0.40;0.40;;;;;;;;;;5040891;28;20200;-72
2022/02/08 09:02:23;;;;;;;0.00;0.00;;;;;;;;;;5041523;28;20692;-72
2022/02/08 09:04:52;;;;;;;0.00;0.00;;;;;;;;;;5040424;28;20203;-70
2022/02/08 09:07:20;;;;;;;0.30;0.30;;;;;;;;;;5041081;28;20207;-72
2022/02/08 09:09:54;;;;;;;0.00;0.00;;;;;;;;;;5039813;28;20214;-69
2022/02/08 09:12:26;;;;;;;0.83;0.20;;;;;;;;;;5041779;28;20227;-70
2022/02/08 09:26:48;;;;;;;1.23;1.23;;;;;;;;;;5036986;28;20192;-74
2022/02/08 09:29:22;;;;;;;0.10;0.00;;;;;;;;;;5039203;28;20338;-74
2022/02/08 09:31:58;;;;;;;1.03;0.20;;;;;;;;;;5039495;28;20618;-72
2022/02/08 09:34:29;;;;;;;0.77;0.33;;;;;;;;;;5040966;28;20284;-71
2022/02/08 09:36:56;;;;;;;4.57;0.53;;;;;;;;;;5040872;28;20692;-71
2022/02/08 09:39:24;;;;;;;0.37;0.20;;;;;;;;;;5040778;28;20206;-70
2022/02/08 09:41:54;;;;;;;2.20;0.73;;;;;;;;;;5040784;28;20196;-70
2022/02/08 09:44:25;;;;;;;0.00;0.00;;;;;;;;;;5041388;28;20211;-74
2022/02/08 09:46:53;;;;;;;4.40;0.23;;;;;;;;;;5042274;28;20564;-72
2022/02/08 09:49:20;;;;;;;0.90;0.53;;;;;;;;;;5043066;28;20202;-72
2022/02/08 09:51:50;;;;;;;0.00;0.00;;;;;;;;;;5041156;28;20231;-69
2022/02/08 09:54:19;;;;;;;0.43;0.43;;;;;;;;;;5039777;28;20782;-74
2022/02/08 09:56:47;;;;;;;3.20;0.10;;;;;;;;;;5038545;28;21371;-69
2022/02/08 09:59:15;;;;;;;0.03;0.00;;;;;;;;;;5040823;28;20191;-70
2022/02/08 10:01:53;;;;;;;1.00;0.60;;;;;;;;;;5040124;28;20209;-72
2022/02/08 10:04:20;;;;;;;1.43;0.37;;;;;;;;;;5041398;28;20218;-69
2022/02/08 10:06:47;;;;;;;4.43;0.40;;;;;;;;;;5039654;28;20201;-72
2022/02/08 10:09:15;;;;;;;0.70;0.43;;;;;;;;;;5039841;28;20195;-69
2022/02/08 10:11:45;;;;;;;0.20;0.20;;;;;;;;;;5038167;28;20856;-73
2022/02/08 10:14:22;;;;;;;0.30;0.30;;;;;;;;;;5040042;28;20208;-82
2022/02/08 10:20:21;;;;;;;0.00;0.00;;;;;;;;;;5016594;28;20239;-70
2022/02/08 10:22:47;;;;;;;0.43;0.10;;;;;;;;;;5039297;28;20208;-72
2022/02/08 10:25:22;;;;;;;0.00;0.00;;;;;;;;;;5047042;28;20589;-69
2022/02/08 10:28:02;;;;;;;3.40;0.47;;;;;;;;;;5047851;28;20207;-71
2022/02/08 10:31:03;;;;;;;0.00;0.00;;;;;;;;;;5047023;28;20200;-71
2022/02/08 10:39:04;;;;;;;0.10;0.10;;;;;;;;;;5045613;28;20223;-68
2022/02/08 10:41:33;;;;;;;1.40;0.57;;;;;;;;;;5046944;28;20200;-70
2022/02/08 10:44:02;;;;;;;1.13;0.50;;;;;;;;;;5051541;28;20211;-70
2022/02/08 10:46:30;;;;;;;0.13;0.13;;;;;;;;;;5047609;28;20628;-69
2022/02/08 10:49:08;;;;;;;0.20;0.13;;;;;;;;;;5047707;28;20211;-70
2022/02/08 10:51:43;;;;;;;1.60;0.17;;;;;;;;;;5049090;28;20219;-70
2022/02/08 10:54:15;;;;;;;0.13;0.13;;;;;;;;;;5047166;28;20382;-69
2022/02/08 10:56:45;;;;;;;1.07;0.40;;;;;;;;;;5047364;28;20207;-70
2022/02/08 10:59:19;;;;;;;0.10;0.10;;;;;;;;;;5046135;28;20641;-69
2022/02/08 11:01:56;;;;;;;0.30;0.30;;;;;;;;;;5046735;28;20207;-71
2022/02/08 11:04:42;;;;;;;0.20;0.10;;;;;;;;;;5048217;28;20211;-72
2022/02/08 11:07:23;;;;;;;0.33;0.30;;;;;;;;;;5046389;28;20286;-70
2022/02/08 11:10:06;;;;;;;0.00;0.00;;;;;;;;;;5046816;28;20203;-73
2022/02/08 11:12:41;;;;;;;0.00;0.00;;;;;;;;;;5047501;28;20238;-70
2022/02/08 11:15:23;;;;;;;0.83;0.53;;;;;;;;;;5045858;28;20210;-70
2022/02/08 11:18:14;;;;;;;0.23;0.23;;;;;;;;;;5047261;28;20207;-68
2022/02/08 11:20:47;;;;;;;0.20;0.20;;;;;;;;;;5046255;28;20234;-70
2022/02/08 11:23:20;;;;;;;0.00;0.00;;;;;;;;;;5046703;28;20665;-69
2022/02/08 11:25:50;;;;;;;0.07;0.07;;;;;;;;;;5044276;28;20754;-69
2022/02/08 11:28:23;;;;;;;1.00;0.40;;;;;;;;;;5043661;28;20204;-69
2022/02/08 11:31:01;;;;;;;0.30;0.30;;;;;;;;;;5046598;28;20243;-69
2022/02/08 11:33:45;;;;;;;0.30;0.20;;;;;;;;;;5046646;28;20222;-73
2022/02/08 11:39:27;;;;;;;0.17;0.17;;;;;;;;;;5041836;28;21078;-68
2022/02/08 11:44:53;;;;;;;0.63;0.63;;;;;;;;;;5039878;28;20210;-70
2022/02/08 11:47:50;;;;;;;0.10;0.10;;;;;;;;;;5044879;28;20257;-77
2022/02/08 11:50:41;;;;;;;0.77;0.63;;;;;;;;;;5042500;28;20203;-70
2022/02/08 11:53:27;;;;;;;0.20;0.20;;;;;;;;;;5040490;28;20604;-70
2022/02/08 11:58:50;;;;;;;0.97;0.60;;;;;;;;;;5036804;28;20631;-74
2022/02/08 12:01:22;;;;;;;2.57;0.70;;;;;;;;;;5039811;28;20203;-71
2022/02/08 12:04:17;;;;;;;0.90;0.90;;;;;;;;;;5043189;28;22189;-76
2022/02/08 12:09:39;;;;;;;4.70;0.47;;;;;;;;;;5042013;28;20203;-68
2022/02/08 12:12:35;;;;;;;2.63;0.53;;;;;;;;;;5041795;28;20230;-68
2022/02/08 12:34:44;;;;;;;0.00;0.00;;;;;;;;;;5039601;28;20562;-69
2022/02/08 12:49:03;;;;;;;0.10;0.10;;;;;;;;;;5043937;28;20195;-68
2022/02/08 12:54:43;;;;;;;1.33;0.33;;;;;;;;;;5043699;28;20192;-70
2022/02/08 12:57:25;;;;;;;1.70;0.50;;;;;;;;;;5042394;28;20227;-68
2022/02/08 13:03:10;;;;;;;0.37;0.20;;;;;;;;;;5012485;28;20188;-68
2022/02/08 13:15:15;;;;;;;0.00;0.00;;;;;;;;;;5050501;28;20242;-66
2022/02/08 14:01:44;;;;;;;0.17;0.10;;;;;;;;;;5044949;28;20199;-70
2022/02/08 14:07:09;;;;;;;0.10;0.10;;;;;;;;;;5039292;28;20228;-68
2022/02/08 14:09:50;;;;;;;11.23;0.53;;;;;;;;;;5044458;28;20192;-67
2022/02/08 14:17:59;;;;;;;0.00;0.00;;;;;;;;;;5038047;28;20548;-71
2022/02/08 14:20:57;;;;;;;0.77;0.63;;;;;;;;;;5039569;28;20285;-68
2022/02/08 14:23:40;;;;;;;0.10;0.10;;;;;;;;;;5040344;28;20208;-69
2022/02/08 14:31:51;;;;;;;0.00;0.00;;;;;;;;;;5041030;28;20253;-69
2022/02/08 14:37:19;;;;;;;1.07;0.57;;;;;;;;;;5018184;28;20200;-69
2022/02/08 15:10:17;;;;;;;0.27;0.23;;;;;;;;;;5040679;28;20199;-74
2022/02/08 15:12:52;;;;;;;0.30;0.30;;;;;;;;;;5040464;28;20304;-70
2022/02/08 15:15:28;;;;;;;25.93;1.13;;;;;;;;;;5040874;28;20268;-70
2022/02/08 15:17:55;;;;;;;1.20;0.70;;;;;;;;;;5040622;28;20205;-68
2022/02/08 15:20:23;;;;;;;0.43;0.43;;;;;;;;;;5040162;28;21881;-70
2022/02/08 15:22:54;;;;;;;3.40;0.20;;;;;;;;;;5040661;28;20210;-70
2022/02/08 15:25:22;;;;;;;0.93;0.30;;;;;;;;;;5041373;28;20200;-70
2022/02/08 15:27:51;;;;;;;1.27;0.60;;;;;;;;;;5040496;28;20621;-70
2022/02/08 15:30:18;;;;;;;0.87;0.47;;;;;;;;;;5040777;28;20289;-69
2022/02/08 15:32:46;;;;;;;3.07;0.30;;;;;;;;;;5040847;28;20232;-69
2022/02/08 15:35:14;;;;;;;0.87;0.40;;;;;;;;;;5049713;28;20267;-73
2022/02/08 15:37:42;;;;;;;0.10;0.10;;;;;;;;;;5049866;28;20278;-67
2022/02/08 15:40:10;;;;;;;6.50;0.57;;;;;;;;;;5047059;28;20221;-70
2022/02/08 15:42:40;;;;;;;0.10;0.10;;;;;;;;;;5050402;28;20207;-71
2022/02/08 15:45:17;;;;;;;0.80;0.40;;;;;;;;;;5049549;28;20253;-68
2022/02/08 15:47:45;;;;;;;0.53;0.30;;;;;;;;;;5050673;28;20196;-71
2022/02/08 15:50:17;;;;;;;2.07;1.10;;;;;;;;;;5049649;28;20196;-69
2022/02/08 15:55:36;;;;;;;0.80;0.40;;;;;;;;;;5047042;28;20552;-68
2022/02/08 15:58:17;;;;;;;0.30;0.30;;;;;;;;;;5046800;28;20200;-70
2022/02/08 16:01:03;;;;;;;0.27;0.20;;;;;;;;;;5048123;28;20188;-70
2022/02/08 16:09:02;;;;;;;0.20;0.20;;;;;;;;;;5036828;28;20207;-70
2022/02/08 16:11:49;;;;;;;0.30;0.30;;;;;;;;;;5047652;28;20250;-70
2022/02/08 16:14:30;;;;;;;0.20;0.20;;;;;;;;;;5045572;28;20875;-69
2022/02/08 16:17:09;;;;;;;0.00;0.00;;;;;;;;;;5046480;28;20200;-71
2022/02/08 16:19:48;;;;;;;0.87;0.60;;;;;;;;;;5047047;28;20228;-69
2022/02/08 16:22:36;;;;;;;0.30;0.23;;;;;;;;;;5043970;28;20195;-70
2022/02/08 16:25:15;;;;;;;0.17;0.17;;;;;;;;;;5044448;28;20192;-71
2022/02/08 16:27:56;;;;;;;0.20;0.20;;;;;;;;;;5050152;28;20195;-70
2022/02/08 16:31:06;;;;;;;0.10;0.10;;;;;;;;;;5051118;28;20286;-72
2022/02/08 16:51:15;;;;;;;0.17;0.03;;;;;;;;;;5042897;28;20206;-69
2022/02/08 16:53:34;;;;;;;1.70;0.30;;;;;;;;;;5043082;28;20239;-67
2022/02/08 16:56:15;;;;;;;0.20;0.20;;;;;;;;;;5042555;28;20199;-67
2022/02/08 16:58:49;;;;;;;0.83;0.30;;;;;;;;;;5042371;28;20191;-67
2022/02/08 17:01:19;;;;;;;1.70;0.23;;;;;;;;;;5044208;28;20208;-67
2022/02/08 17:03:48;;;;;;;0.00;0.00;;;;;;;;;;5042717;28;21020;-66
2022/02/08 17:06:19;;;;;;;1.60;0.70;;;;;;;;;;5042611;28;20200;-68
2022/02/08 17:08:48;;;;;;;0.23;0.23;;;;;;;;;;5043308;28;20656;-66
2022/02/08 17:11:22;;;;;;;4.53;0.17;;;;;;;;;;5043981;28;20208;-66
2022/02/08 17:14:13;;;;;;;0.60;0.60;;;;;;;;;;5041491;28;20255;-69
2022/02/08 17:16:48;;;;;;;0.10;0.10;;;;;;;;;;5045618;28;20192;-68
2022/02/08 17:46:57;;;;;;;0.00;0.00;;;;;;;;;;5044765;28;20203;-68
2022/02/08 17:49:24;;;;;;;0.27;0.27;;;;;;;;;;5044709;28;20235;-69
2022/02/08 17:51:52;;;;;;;0.00;0.00;;;;;;;;;;5044570;28;20198;-67
2022/02/08 17:54:21;;;;;;;0.00;0.00;;;;;;;;;;5044501;28;20310;-70
2022/02/08 17:56:48;;;;;;;0.00;0.00;;;;;;;;;;5045088;28;20257;-68
2022/02/08 17:59:20;;;;;;;0.20;0.20;;;;;;;;;;5045701;28;20204;-70
2022/02/08 18:01:48;;;;;;;0.00;0.00;;;;;;;;;;5043186;28;20235;-68
2022/02/08 18:04:15;;;;;;;0.27;0.07;;;;;;;;;;5044437;28;20281;-68
2022/02/08 18:06:43;;;;;;;0.10;0.10;;;;;;;;;;5045518;28;20202;-69
2022/02/08 18:09:12;;;;;;;0.33;0.07;;;;;;;;;;5045758;28;20715;-68
2022/02/08 18:11:42;;;;;;;0.60;0.30;;;;;;;;;;5044043;28;20207;-68
2022/02/08 18:14:14;;;;;;;0.40;0.20;;;;;;;;;;5044488;28;20301;-68
2022/02/08 18:16:42;;;;;;;0.10;0.10;;;;;;;;;;5044794;28;20204;-70
2022/02/08 18:19:14;;;;;;;0.10;0.10;;;;;;;;;;5044816;28;20199;-69
2022/02/08 18:21:47;;;;;;;0.20;0.20;;;;;;;;;;5043421;28;20278;-68
2022/02/08 18:24:42;;;;;;;0.00;0.00;;;;;;;;;;5045122;28;20689;-72
2022/02/08 18:27:32;;;;;;;0.20;0.20;;;;;;;;;;5044157;28;20191;-68
2022/02/08 19:03:55;;;;;;;1.03;1.03;;;;;;;;;;5042542;28;20264;-69
2022/02/08 19:09:17;;;;;;;0.00;0.00;;;;;;;;;;5021342;28;20218;-67
2022/02/08 19:11:53;;;;;;;0.00;0.00;;;;;;;;;;5043230;28;20659;-69
2022/02/08 19:15:05;;;;;;;0.10;0.07;;;;;;;;;;5041396;28;20232;-68
2022/02/08 19:20:09;;;;;;;0.10;0.00;;;;;;;;;;5039232;28;20238;-68
2022/02/08 19:22:36;;;;;;;0.40;0.40;;;;;;;;;;5043586;28;20192;-69
2022/02/08 19:25:04;;;;;;;0.00;0.00;;;;;;;;;;5042739;28;20199;-68
2022/02/08 19:27:32;;;;;;;0.00;0.00;;;;;;;;;;5042513;28;20210;-69
2022/02/08 19:29:59;;;;;;;0.10;0.10;;;;;;;;;;5043544;28;20199;-67
2022/02/08 19:32:28;;;;;;;0.37;0.37;;;;;;;;;;5042990;28;20203;-71
2022/02/08 19:34:56;;;;;;;0.00;0.00;;;;;;;;;;5043115;28;20231;-69
2022/02/08 19:37:24;;;;;;;0.10;0.10;;;;;;;;;;5040923;28;20223;-69
2022/02/08 19:39:51;;;;;;;0.10;0.10;;;;;;;;;;5040618;28;20227;-69
2022/02/08 19:42:19;;;;;;;0.30;0.30;;;;;;;;;;5040307;28;21004;-71
2022/02/08 19:44:54;;;;;;;0.20;0.13;;;;;;;;;;5039912;28;20203;-68
2022/02/08 19:47:22;;;;;;;0.20;0.20;;;;;;;;;;5039866;28;20217;-68
2022/02/08 19:49:52;;;;;;;0.47;0.47;;;;;;;;;;5041793;28;20215;-67
2022/02/08 19:52:21;;;;;;;0.20;0.20;;;;;;;;;;5041443;28;20204;-67
2022/02/08 19:55:05;;;;;;;0.17;0.17;;;;;;;;;;5041045;28;20211;-68
2022/02/08 19:57:32;;;;;;;0.30;0.30;;;;;;;;;;5040888;28;20215;-69
2022/02/08 20:00:06;;;;;;;1.80;0.57;;;;;;;;;;5040877;28;20208;-68
2022/02/08 20:02:40;;;;;;;0.30;0.30;;;;;;;;;;5042424;28;20198;-67
2022/02/08 20:05:11;;;;;;;0.30;0.30;;;;;;;;;;5044759;28;20207;-69
2022/02/08 20:07:38;;;;;;;0.10;0.10;;;;;;;;;;5045085;28;20192;-67
2022/02/08 20:10:06;;;;;;;2.43;0.70;;;;;;;;;;5044863;28;20195;-67
2022/02/08 20:12:34;;;;;;;0.03;0.03;;;;;;;;;;5044137;28;20656;-68
2022/02/08 20:15:01;;;;;;;0.57;0.10;;;;;;;;;;5043112;28;20215;-68
2022/02/08 20:17:29;;;;;;;0.10;0.10;;;;;;;;;;5044664;28;20206;-69
2022/02/08 20:19:57;;;;;;;0.30;0.00;;;;;;;;;;5044212;28;20239;-69
2022/02/08 20:22:26;;;;;;;0.10;0.10;;;;;;;;;;5045778;28;20207;-70
2022/02/08 20:24:55;;;;;;;0.37;0.37;;;;;;;;;;5043551;28;20779;-69
2022/02/08 20:27:45;;;;;;;0.00;0.00;;;;;;;;;;5043939;28;20198;-69
2022/02/08 20:30:14;;;;;;;0.60;0.60;;;;;;;;;;5044049;28;20223;-68
2022/02/08 20:32:42;;;;;;;12.50;1.00;;;;;;;;;;5044022;28;20944;-68
2022/02/08 20:35:09;;;;;;;0.83;0.83;;;;;;;;;;5043310;28;20597;-68
2022/02/08 20:37:41;;;;;;;0.20;0.20;;;;;;;;;;5040611;28;20214;-71
2022/02/08 20:40:09;;;;;;;0.57;0.57;;;;;;;;;;5042972;28;20729;-68
2022/02/08 20:42:37;;;;;;;0.03;0.03;;;;;;;;;;5042864;28;20188;-69
2022/02/08 20:45:05;;;;;;;0.30;0.20;;;;;;;;;;5044252;28;20196;-67
2022/02/08 20:47:34;;;;;;;0.30;0.07;;;;;;;;;;5043342;28;20203;-67
2022/02/08 20:50:11;;;;;;;0.30;0.30;;;;;;;;;;5043908;28;20196;-68
2022/02/08 20:52:44;;;;;;;0.83;0.77;;;;;;;;;;5043890;28;20557;-67
2022/02/08 20:55:16;;;;;;;0.10;0.10;;;;;;;;;;5043702;28;20648;-67
2022/02/08 20:57:50;;;;;;;0.13;0.10;;;;;;;;;;5042539;28;20346;-69